createdAt,value
2018-08-19T00:01:40.137Z,3.30
2018-08-19T00:06:43.835Z,3.17
2018-08-19T00:11:46.958Z,3.20
2018-08-19T00:16:50.069Z,3.57
2018-08-19T00:21:53.203Z,3.47
2018-08-19T00:26:56.289Z,3.77
2018-08-19T00:31:59.412Z,2.90
2018-08-19T00:37:04.458Z,3.30
2018-08-19T00:42:07.607Z,3.30
2018-08-19T00:47:11.020Z,4.20
2018-08-19T00:52:14.127Z,5.90
2018-08-19T00:57:17.227Z,5.20
2018-08-19T01:02:20.324Z,5.00
2018-08-19T01:07:23.427Z,4.07
2018-08-19T01:12:26.551Z,3.97
2018-08-19T01:17:37.347Z,4.60
2018-08-19T01:22:41.703Z,4.93
2018-08-19T01:27:44.963Z,5.47
2018-08-19T01:32:48.334Z,3.60
2018-08-19T01:37:51.452Z,4.67
2018-08-19T01:42:54.547Z,4.40
2018-08-19T01:47:57.655Z,6.07
2018-08-19T01:53:00.774Z,5.90
2018-08-19T01:58:03.892Z,4.20
2018-08-19T02:03:07.008Z,5.10
2018-08-19T02:08:10.107Z,5.30
2018-08-19T02:13:13.240Z,6.23
2018-08-19T02:18:16.343Z,4.50
2018-08-19T02:23:19.444Z,5.63
2018-08-19T02:28:22.539Z,4.13
2018-08-19T02:33:25.642Z,7.30
2018-08-19T02:38:28.723Z,7.80
2018-08-19T02:43:31.828Z,6.40
2018-08-19T02:48:45.359Z,7.03
2018-08-19T02:53:49.705Z,6.03
2018-08-19T02:58:52.807Z,7.33
2018-08-19T03:03:55.930Z,4.90
2018-08-19T03:08:59.639Z,6.57
2018-08-19T03:14:02.731Z,6.67
2018-08-19T03:19:05.823Z,8.37
2018-08-19T03:24:08.944Z,8.07
2018-08-19T03:29:16.288Z,8.90
2018-08-19T03:34:19.380Z,8.50
2018-08-19T03:39:24.315Z,8.30
2018-08-19T03:44:33.868Z,8.60
2018-08-19T03:49:36.975Z,8.30
2018-08-19T03:54:40.064Z,7.20
2018-08-19T03:59:43.904Z,7.80
2018-08-19T04:04:48.084Z,7.47
2018-08-19T04:09:51.234Z,8.30
2018-08-19T04:14:54.412Z,6.63
2018-08-19T04:19:57.896Z,6.37
2018-08-19T04:25:00.995Z,6.00
2018-08-19T04:30:04.339Z,8.30
2018-08-19T04:35:07.452Z,7.07
2018-08-19T04:40:10.585Z,9.47
2018-08-19T04:45:13.688Z,8.97
2018-08-19T04:50:17.015Z,8.43
2018-08-19T04:55:20.127Z,7.77
2018-08-19T05:00:23.244Z,9.00
2018-08-19T05:05:26.351Z,7.50
2018-08-19T05:10:29.461Z,6.90
2018-08-19T05:15:32.556Z,10.27
2018-08-19T05:20:35.627Z,8.03
2018-08-19T05:25:45.727Z,7.00
2018-08-19T05:30:48.831Z,9.93
2018-08-19T05:35:51.923Z,8.60
2018-08-19T05:40:59.978Z,7.40
2018-08-19T05:46:03.091Z,11.23
2018-08-19T05:51:06.201Z,6.57
2018-08-19T05:56:09.296Z,9.13
2018-08-19T06:01:16.660Z,7.00
2018-08-19T06:06:19.720Z,7.53
2018-08-19T06:11:22.803Z,9.77
2018-08-19T06:16:25.905Z,8.60
2018-08-19T06:21:28.999Z,6.47
2018-08-19T06:26:34.071Z,5.40
2018-08-19T06:31:37.245Z,6.07
2018-08-19T06:36:40.406Z,6.30
2018-08-19T06:41:43.450Z,7.70
2018-08-19T06:46:46.560Z,7.23
2018-08-19T06:51:50.028Z,6.10
2018-08-19T06:56:55.008Z,6.80
2018-08-19T07:01:58.120Z,5.87
2018-08-19T07:07:01.381Z,7.00
2018-08-19T07:12:08.234Z,7.73
2018-08-19T07:17:11.312Z,5.77
2018-08-19T07:22:15.575Z,7.00
2018-08-19T07:27:18.655Z,5.63
2018-08-19T07:32:21.763Z,7.90
2018-08-19T07:37:24.871Z,7.57
2018-08-19T07:42:27.975Z,5.70
2018-08-19T07:47:31.094Z,8.10
2018-08-19T07:52:34.167Z,7.07
2018-08-19T07:57:40.407Z,6.97
2018-08-19T08:02:43.507Z,7.43
2018-08-19T08:07:48.505Z,7.80
2018-08-19T08:13:00.821Z,7.90
2018-08-19T08:18:03.914Z,7.10
2018-08-19T08:23:17.536Z,7.90
2018-08-19T08:28:20.702Z,7.20
2018-08-19T08:33:23.803Z,6.50
2018-08-19T08:38:26.880Z,7.40
2018-08-19T08:43:30.060Z,5.77
2018-08-19T08:48:34.506Z,9.03
2018-08-19T08:53:42.987Z,7.27
2018-08-19T08:58:46.090Z,6.63
2018-08-19T09:03:49.621Z,7.43
2018-08-19T09:08:52.710Z,5.73
2018-08-19T09:13:55.874Z,5.70
2018-08-19T09:18:58.911Z,7.00
2018-08-19T09:24:01.999Z,5.83
2018-08-19T09:29:05.112Z,6.50
2018-08-19T09:34:09.072Z,7.40
2018-08-19T09:39:12.401Z,7.90
2018-08-19T09:44:15.499Z,6.37
2018-08-19T09:49:18.595Z,7.20
2018-08-19T09:54:26.080Z,6.77
2018-08-19T09:59:29.167Z,7.40
2018-08-19T10:04:32.357Z,7.43
2018-08-19T10:09:35.435Z,7.00
2018-08-19T10:14:38.515Z,5.77
2018-08-19T10:19:41.644Z,6.30
2018-08-19T10:24:44.719Z,6.03
2018-08-19T10:29:47.811Z,6.13
2018-08-19T10:34:50.927Z,5.73
2018-08-19T10:39:54.128Z,5.23
2018-08-19T10:44:57.383Z,6.20
2018-08-19T10:50:04.828Z,5.73
2018-08-19T10:55:09.286Z,5.50
2018-08-19T11:00:14.887Z,6.40
2018-08-19T11:05:17.987Z,5.13
2018-08-19T11:10:22.234Z,6.43
2018-08-19T11:15:33.419Z,6.10
2018-08-19T11:20:37.568Z,7.90
2018-08-19T11:25:40.667Z,6.07
2018-08-19T11:30:43.757Z,5.13
2018-08-19T11:35:46.871Z,5.60
2018-08-19T11:40:49.967Z,5.60
2018-08-19T11:45:53.056Z,6.00
2018-08-19T11:50:56.159Z,6.47
2018-08-19T11:55:59.507Z,6.07
2018-08-19T12:01:03.762Z,6.10
2018-08-19T12:06:06.848Z,6.00
2018-08-19T12:11:15.771Z,6.80
2018-08-19T12:16:20.353Z,5.37
2018-08-19T12:21:23.863Z,5.50
2018-08-19T12:26:26.960Z,5.37
2018-08-19T12:31:30.091Z,5.60
2018-08-19T12:36:33.235Z,6.57
2018-08-19T12:41:41.806Z,6.93
2018-08-19T12:46:59.414Z,6.70
2018-08-19T12:52:02.816Z,6.37
2018-08-19T12:57:06.068Z,5.80
2018-08-19T13:02:09.256Z,6.37
2018-08-19T13:07:13.528Z,5.53
2018-08-19T13:12:16.647Z,6.83
2018-08-19T13:17:19.747Z,5.70
2018-08-19T13:22:22.848Z,5.53
2018-08-19T13:27:25.963Z,5.90
2018-08-19T13:32:29.044Z,7.43
2018-08-19T13:37:32.124Z,6.57
2018-08-19T13:42:35.246Z,6.17
2018-08-19T13:47:39.195Z,6.60
2018-08-19T13:52:42.715Z,6.50
2018-08-19T13:57:45.800Z,6.37
2018-08-19T14:02:49.447Z,5.43
2018-08-19T14:07:52.535Z,5.97
2018-08-19T14:12:55.636Z,6.20
2018-08-19T14:17:58.762Z,5.27
2018-08-19T14:23:01.851Z,6.20
2018-08-19T14:28:04.936Z,5.87
2018-08-19T14:33:09.250Z,5.67
2018-08-19T14:38:12.360Z,5.30
2018-08-19T14:43:15.485Z,5.23
2018-08-19T14:48:25.255Z,5.67
2018-08-19T14:53:28.361Z,4.33
2018-08-19T14:58:31.484Z,5.73
2018-08-19T15:03:34.625Z,4.93
2018-08-19T15:08:37.722Z,5.10
2018-08-19T15:13:40.846Z,6.47
2018-08-19T15:18:43.947Z,4.40
2018-08-19T15:23:47.060Z,5.23
2018-08-19T15:28:50.181Z,5.20
2018-08-19T15:33:53.283Z,4.83
2018-08-19T15:38:56.367Z,4.90
2018-08-19T15:43:59.496Z,5.67
2018-08-19T15:49:02.589Z,5.60
2018-08-19T15:54:06.484Z,5.37
2018-08-19T15:59:10.317Z,5.70
2018-08-19T16:04:16.712Z,5.77
2018-08-19T16:09:21.991Z,6.00
2018-08-19T16:14:26.065Z,6.03
2018-08-19T16:19:29.255Z,5.37
2018-08-19T16:24:32.344Z,6.07
2018-08-19T16:29:35.456Z,6.13
2018-08-19T16:34:38.568Z,6.17
2018-08-19T16:39:41.672Z,6.67
2018-08-19T16:44:44.802Z,6.63
2018-08-19T16:49:47.903Z,6.60
2018-08-19T16:54:51.100Z,6.70
2018-08-19T16:59:54.200Z,6.57
2018-08-19T17:04:57.328Z,7.70
2018-08-19T17:10:00.450Z,7.30
2018-08-19T17:15:03.549Z,6.60
2018-08-19T17:20:06.653Z,7.17
2018-08-19T17:30:19.432Z,6.30
2018-08-19T17:35:22.528Z,6.07
2018-08-19T17:40:25.651Z,7.17
2018-08-19T17:45:28.826Z,7.63
2018-08-19T17:55:41.395Z,6.80
2018-08-19T18:00:44.492Z,6.60
2018-08-19T18:05:47.588Z,7.17
2018-08-19T18:10:57.471Z,8.37
2018-08-19T18:16:08.180Z,7.37
2018-08-19T18:21:11.297Z,7.80
2018-08-19T18:26:14.719Z,8.40
2018-08-19T18:31:20.023Z,7.53
2018-08-19T18:36:24.220Z,7.10
2018-08-19T18:41:33.774Z,8.30
2018-08-19T18:46:37.318Z,7.93
2018-08-19T18:51:42.950Z,8.67
2018-08-19T18:56:46.058Z,7.40
2018-08-19T19:01:49.152Z,11.17
2018-08-19T19:06:52.362Z,9.97
2018-08-19T19:11:55.541Z,9.10
2018-08-19T19:16:58.659Z,7.83
2018-08-19T19:22:01.810Z,7.67
2018-08-19T19:27:04.883Z,6.93
2018-08-19T19:32:16.824Z,6.73
2018-08-19T19:37:19.926Z,7.10
2018-08-19T19:42:23.021Z,6.53
2018-08-19T19:47:26.116Z,7.20
2018-08-19T19:52:29.540Z,7.20
2018-08-19T19:57:32.647Z,8.90
2018-08-19T20:02:35.757Z,8.60
2018-08-19T20:07:38.879Z,7.53
2018-08-19T20:12:41.969Z,7.70
2018-08-19T20:17:45.074Z,6.97
2018-08-19T20:22:48.142Z,7.37
2018-08-19T20:27:55.674Z,6.90
2018-08-19T20:32:59.070Z,6.73
2018-08-19T20:38:02.107Z,7.67
2018-08-19T20:43:10.304Z,6.30
2018-08-19T20:48:15.331Z,6.90
2018-08-19T20:53:19.440Z,6.60
2018-08-19T20:58:22.603Z,6.93
2018-08-19T21:03:25.703Z,6.53
2018-08-19T21:08:28.775Z,6.60
2018-08-19T21:13:31.875Z,5.40
2018-08-19T21:18:34.976Z,5.57
2018-08-19T21:23:38.082Z,5.37
2018-08-19T21:28:43.480Z,7.53
2018-08-19T21:33:46.555Z,7.40
2018-08-19T21:38:49.646Z,6.77
2018-08-19T21:43:52.899Z,5.93
2018-08-19T21:48:56.011Z,6.40
2018-08-19T21:53:59.083Z,7.10
2018-08-19T21:59:03.456Z,5.90
2018-08-19T22:04:06.558Z,7.47
2018-08-19T22:09:24.471Z,6.97
2018-08-19T22:14:27.784Z,6.30
2018-08-19T22:19:31.191Z,7.27
2018-08-19T22:24:34.360Z,6.30
2018-08-19T22:29:37.427Z,7.43
2018-08-19T22:34:40.508Z,7.17
2018-08-19T22:39:43.602Z,6.50
2018-08-19T22:44:46.687Z,6.20
2018-08-19T22:49:49.784Z,6.10
2018-08-19T22:54:55.398Z,6.20
2018-08-19T22:59:58.489Z,6.63
2018-08-19T23:05:01.596Z,6.37
2018-08-19T23:10:04.931Z,5.90
2018-08-19T23:15:19.547Z,6.80
2018-08-19T23:20:22.656Z,6.90
2018-08-19T23:25:25.741Z,6.13
2018-08-19T23:30:28.820Z,5.80
2018-08-19T23:35:31.908Z,5.57
2018-08-19T23:40:34.988Z,7.00
2018-08-19T23:45:38.075Z,6.30
2018-08-19T23:50:41.246Z,6.47
2018-08-19T23:55:44.343Z,6.90
